| time (UTC) | temp F | wind direction | speed knots | gust knots | rain 1hr in | rain 24hr in | rain mn in | humidity % | barometer mb |
| 20260506050427 | 63 | 34 | 0.9 | 4.3 | 0.00 | 0.00 | 0.00 | 77 | 1009.1 |
| 20260506044926 | 64 | 203 | 0.0 | 2.6 | 0.00 | 0.00 | 0.00 | 77 | 1008.9 |
| 20260506044426 | 64 | 260 | 0.9 | 4.3 | 0.00 | 0.00 | 0.00 | 76 | 1008.8 |
| 20260506043924 | 64 | 241 | 0.9 | 7.0 | 0.00 | 0.00 | 0.00 | 76 | 1008.9 |
| 20260506043423 | 64 | 258 | 0.9 | 7.0 | 0.00 | 0.00 | 0.00 | 76 | 1009.0 |
| 20260506042927 | 65 | 162 | 0.9 | 3.5 | 0.00 | 0.00 | 0.00 | 76 | 1008.9 |
| 20260506042922 | 64 | 208 | 0.9 | 3.5 | 0.00 | 0.00 | 0.00 | 76 | 1008.9 |
| 20260506041928 | 65 | 239 | 0.9 | 5.2 | 0.00 | 0.00 | 0.00 | 75 | 1008.9 |
| 20260506041922 | 65 | 278 | 0.9 | 3.5 | 0.00 | 0.00 | 0.00 | 76 | 1009.0 |
| 20260506041422 | 65 | 281 | 0.9 | 5.2 | 0.00 | 0.00 | 0.00 | 75 | 1009.0 |
| 20260506040536 | 66 | 20 | 0.9 | 5.2 | 0.00 | 0.00 | 0.00 | 74 | 1008.5 |
| 20260506040426 | 66 | 236 | 0.9 | 7.0 | 0.00 | 0.00 | 0.00 | 74 | 1008.8 |
| 20260506040422 | 65 | 249 | 0.9 | 7.0 | 0.00 | 0.00 | 0.00 | 75 | 1008.8 |
| 20260506035422 | 66 | 155 | 0.9 | 5.2 | 0.00 | 0.00 | 0.00 | 75 | 1008.7 |
| 20260506034423 | 66 | 47 | 0.9 | 5.2 | 0.00 | 0.00 | 0.00 | 74 | 1008.3 |
| 20260506033920 | 66 | 232 | 0.9 | 5.2 | 0.00 | 0.00 | 0.00 | 74 | 1008.1 |
| 20260506033420 | 67 | 34 | 0.9 | 6.1 | 0.00 | 0.00 | 0.00 | 73 | 1007.9 |
| 20260506032921 | 67 | 237 | 0.9 | 6.1 | 0.00 | 0.00 | 0.00 | 73 | 1008.0 |
| 20260506032420 | 68 | 196 | 0.9 | 4.3 | 0.00 | 0.00 | 0.00 | 73 | 1007.8 |
| 20260506031920 | 68 | 256 | 0.9 | 4.3 | 0.00 | 0.00 | 0.00 | 73 | 1007.8 |
| 20260506031426 | 68 | 218 | 0.9 | 4.3 | 0.00 | 0.00 | 0.00 | 73 | 1007.5 |
| 20260506031421 | 68 | 132 | 0.9 | 4.3 | 0.00 | 0.00 | 0.00 | 73 | 1007.7 |
| 20260506030420 | 69 | 213 | 0.9 | 4.3 | 0.00 | 0.00 | 0.00 | 72 | 1007.6 |
| 20260506025922 | 69 | 245 | 0.0 | 4.3 | 0.00 | 0.00 | 0.00 | 71 | 1007.4 |
| 20260506025918 | 69 | 63 | 0.0 | 4.3 | 0.00 | 0.00 | 0.00 | 72 | 1007.6 |
| 20260506024923 | 69 | 49 | 0.9 | 6.1 | 0.00 | 0.00 | 0.00 | 71 | 1007.4 |
| 20260506024918 | 69 | 201 | 0.0 | 2.6 | 0.00 | 0.00 | 0.00 | 71 | 1007.4 |
| 20260506023918 | 69 | 257 | 0.9 | 6.1 | 0.00 | 0.00 | 0.00 | 71 | 1007.2 |
| 20260506023419 | 69 | 225 | 0.9 | 3.5 | 0.00 | 0.00 | 0.00 | 70 | 1007.1 |
| 20260506023032 | 70 | 238 | 0.9 | 3.5 | 0.00 | 0.00 | 0.00 | 69 | 1006.9 |
| 20260506022922 | 70 | 169 | 0.9 | 3.5 | 0.00 | 0.00 | 0.00 | 69 | 1007.0 |
| 20260506022918 | 69 | 265 | 0.9 | 3.5 | 0.00 | 0.00 | 0.00 | 70 | 1007.1 |
| 20260506021422 | 70 | 323 | 0.9 | 5.2 | 0.00 | 0.00 | 0.00 | 68 | 1006.6 |
| 20260506021416 | 70 | 290 | 0.9 | 4.3 | 0.00 | 0.00 | 0.00 | 69 | 1006.7 |
| 20260506020916 | 70 | 253 | 0.9 | 5.2 | 0.00 | 0.00 | 0.00 | 69 | 1006.6 |
| 20260506015916 | 71 | 226 | 0.9 | 5.2 | 0.00 | 0.00 | 0.00 | 68 | 1006.4 |
| 20260506015416 | 71 | 203 | 0.9 | 5.2 | 0.00 | 0.00 | 0.00 | 69 | 1006.1 |
| 20260506014920 | 72 | 236 | 0.9 | 6.1 | 0.00 | 0.00 | 0.00 | 68 | 1005.6 |
| 20260506014916 | 71 | 252 | 0.9 | 6.1 | 0.00 | 0.00 | 0.00 | 69 | 1006.0 |
| 20260506014535 | 72 | 252 | 0.0 | 4.3 | 0.00 | 0.00 | 0.00 | 67 | 1005.7 |
| 20260506014530 | 72 | 250 | 0.0 | 2.6 | 0.00 | 0.00 | 0.00 | 68 | 1005.7 |
| 20260506013416 | 72 | 63 | 0.0 | 4.3 | 0.00 | 0.00 | 0.00 | 68 | 1005.7 |
| 20260506013029 | 73 | 207 | 0.9 | 5.2 | 0.00 | 0.00 | 0.00 | 67 | 1005.4 |
| 20260506012528 | 73 | 285 | 0.9 | 5.2 | 0.00 | 0.00 | 0.00 | 67 | 1005.5 |
| 20260506011415 | 73 | 278 | 0.0 | 3.5 | 0.00 | 0.00 | 0.00 | 67 | 1005.3 |
| 20260506010914 | 73 | 148 | 0.0 | 2.6 | 0.00 | 0.00 | 0.00 | 66 | 1005.3 |
| 20260506010414 | 74 | 236 | 0.9 | 3.5 | 0.00 | 0.00 | 0.00 | 66 | 1005.4 |
| 20260506005919 | 74 | 352 | 0.0 | 3.5 | 0.00 | 0.00 | 0.00 | 66 | 1005.2 |
| 20260506005914 | 74 | 79 | 0.0 | 3.5 | 0.00 | 0.00 | 0.00 | 65 | 1005.4 |
| 20260506004915 | 75 | 259 | 0.9 | 5.2 | 0.00 | 0.00 | 0.00 | 66 | 1005.1 |
| 20260506004412 | 75 | 295 | 0.9 | 5.2 | 0.00 | 0.00 | 0.00 | 65 | 1005.2 |
| 20260506003912 | 76 | 205 | 0.9 | 3.5 | 0.00 | 0.00 | 0.00 | 64 | 1005.0 |
| 20260506003413 | 76 | 247 | 0.9 | 4.3 | 0.00 | 0.00 | 0.00 | 64 | 1004.5 |
| 20260506002911 | 77 | 91 | 0.9 | 4.3 | 0.00 | 0.00 | 0.00 | 64 | 1004.5 |
| 20260506002411 | 78 | 89 | 0.9 | 4.3 | 0.00 | 0.00 | 0.00 | 63 | 1004.6 |
| 20260506001913 | 78 | 311 | 0.9 | 4.3 | 0.00 | 0.00 | 0.00 | 62 | 1004.4 |
| 20260506001417 | 79 | 68 | 0.9 | 4.3 | 0.00 | 0.00 | 0.00 | 60 | 1004.3 |
| 20260506001413 | 78 | 233 | 0.9 | 4.3 | 0.00 | 0.00 | 0.00 | 61 | 1004.3 |
| 20260506000412 | 79 | 238 | 0.9 | 5.2 | 0.00 | 0.00 | 0.00 | 59 | 1004.2 |
| 20260505235909 | 80 | 247 | 0.9 | 6.1 | 0.00 | 0.00 | 0.00 | 58 | 1004.3 |
| 20260505235411 | 80 | 235 | 0.9 | 6.1 | 0.00 | 0.00 | 0.00 | 59 | 1004.2 |
| 20260505234910 | 81 | 266 | 0.9 | 4.3 | 0.00 | 0.00 | 0.00 | 58 | 1004.1 |
| 20260505234411 | 81 | 180 | 0.9 | 3.5 | 0.00 | 0.00 | 0.00 | 58 | 1004.0 |
| 20260505233908 | 82 | 115 | 0.9 | 4.3 | 0.00 | 0.00 | 0.00 | 57 | 1003.9 |
| 20260505233408 | 82 | 191 | 0.9 | 5.2 | 0.00 | 0.00 | 0.00 | 55 | 1003.9 |
| 20260505232908 | 83 | 50 | 0.9 | 5.2 | 0.00 | 0.00 | 0.00 | 55 | 1003.8 |
| 20260505232410 | 83 | 248 | 0.9 | 5.2 | 0.00 | 0.00 | 0.00 | 55 | 1003.8 |
| 20260505231907 | 84 | 79 | 1.7 | 7.0 | 0.00 | 0.00 | 0.00 | 54 | 1004.0 |
| 20260505231406 | 84 | 225 | 1.7 | 7.0 | 0.00 | 0.00 | 0.00 | 53 | 1003.8 |
| 20260505230909 | 87 | 219 | 1.7 | 11.3 | 0.00 | 0.00 | 0.00 | 51 | 1003.5 |
| 20260505230904 | 86 | 276 | 2.6 | 11.3 | 0.00 | 0.00 | 0.00 | 52 | 1003.7 |
| 20260505225910 | 88 | 262 | 0.9 | 7.0 | 0.00 | 0.00 | 0.00 | 48 | 1003.4 |
| 20260505225904 | 88 | 103 | 0.9 | 7.8 | 0.00 | 0.00 | 0.00 | 50 | 1003.7 |
| 20260505225405 | 88 | 167 | 0.9 | 7.8 | 0.00 | 0.00 | 0.00 | 51 | 1003.5 |
| 20260505224404 | 89 | 226 | 0.9 | 7.0 | 0.00 | 0.00 | 0.00 | 47 | 1003.2 |
| 20260505223905 | 90 | 47 | 0.9 | 7.0 | 0.00 | 0.00 | 0.00 | 46 | 1003.1 |
| 20260505223403 | 90 | 265 | 0.9 | 7.0 | 0.00 | 0.00 | 0.00 | 44 | 1003.2 |
| 20260505222902 | 91 | 107 | 0.9 | 3.5 | 0.00 | 0.00 | 0.00 | 43 | 1003.1 |
| 20260505222401 | 91 | 241 | 0.9 | 4.3 | 0.00 | 0.00 | 0.00 | 42 | 1003.1 |
| 20260505221859 | 92 | 108 | 1.7 | 6.1 | 0.00 | 0.00 | 0.00 | 42 | 1003.0 |
| 20260505221359 | 92 | 103 | 1.7 | 6.1 | 0.00 | 0.00 | 0.00 | 43 | 1002.9 |
| 20260505220900 | 92 | 293 | 0.9 | 5.2 | 0.00 | 0.00 | 0.00 | 42 | 1002.9 |
| 20260505220401 | 92 | 283 | 1.7 | 7.0 | 0.00 | 0.00 | 0.00 | 42 | 1002.8 |
| 20260505215900 | 93 | 232 | 0.9 | 7.0 | 0.00 | 0.00 | 0.00 | 41 | 1002.8 |
| 20260505215401 | 95 | 25 | 0.9 | 7.8 | 0.00 | 0.00 | 0.00 | 42 | 1002.8 |
| 20260505214900 | 96 | 277 | 0.9 | 7.8 | 0.00 | 0.00 | 0.00 | 40 | 1002.8 |
| 20260505214359 | 97 | 207 | 0.0 | 3.5 | 0.00 | 0.00 | 0.00 | 42 | 1002.9 |
| 20260505213858 | 96 | 210 | 0.0 | 1.7 | 0.00 | 0.00 | 0.00 | 43 | 1002.8 |
| 20260505213359 | 96 | 233 | 0.0 | 2.6 | 0.00 | 0.00 | 0.00 | 41 | 1002.8 |
| 20260505212901 | 95 | 226 | 0.9 | 3.5 | 0.00 | 0.00 | 0.00 | 43 | 1002.8 |
| 20260505212857 | 94 | 274 | 0.9 | 7.0 | 0.00 | 0.00 | 0.00 | 41 | 1002.7 |
| 20260505211901 | 95 | 290 | 0.9 | 6.1 | 0.00 | 0.00 | 0.00 | 41 | 1002.9 |
| 20260505211856 | 94 | 256 | 0.9 | 7.0 | 0.00 | 0.00 | 0.00 | 42 | 1002.8 |
| 20260505211510 | 95 | 278 | 0.9 | 5.2 | 0.00 | 0.00 | 0.00 | 43 | 1003.1 |
| 20260505210855 | 95 | 210 | 0.9 | 5.2 | 0.00 | 0.00 | 0.00 | 41 | 1003.1 |
| 20260505205855 | 95 | 238 | 0.9 | 5.2 | 0.00 | 0.00 | 0.00 | 44 | 1003.1 |
| 20260505205356 | 95 | 252 | 0.9 | 4.3 | 0.00 | 0.00 | 0.00 | 45 | 1003.1 |
| 20260505204859 | 94 | 189 | 0.9 | 7.8 | 0.00 | 0.00 | 0.00 | 43 | 1003.3 |
| 20260505204855 | 94 | 244 | 0.9 | 7.8 | 0.00 | 0.00 | 0.00 | 45 | 1003.3 |
| 20260505203853 | 94 | 229 | 0.9 | 7.8 | 0.00 | 0.00 | 0.00 | 45 | 1003.4 |
| 20260505203352 | 94 | 254 | 0.9 | 7.8 | 0.00 | 0.00 | 0.00 | 46 | 1003.4 |
| 20260505202851 | 94 | 225 | 0.9 | 6.1 | 0.00 | 0.00 | 0.00 | 45 | 1003.4 |
| 20260505202351 | 94 | 263 | 0.9 | 5.2 | 0.00 | 0.00 | 0.00 | 47 | 1003.4 |
| 20260505201852 | 94 | 231 | 0.9 | 4.3 | 0.00 | 0.00 | 0.00 | 46 | 1003.7 |
| 20260505201352 | 94 | 141 | 0.9 | 6.1 | 0.00 | 0.00 | 0.00 | 47 | 1003.7 |
| 20260505200857 | 93 | 296 | 0.9 | 6.1 | 0.00 | 0.00 | 0.00 | 52 | 1003.7 |
| 20260505200852 | 94 | 168 | 0.9 | 6.1 | 0.00 | 0.00 | 0.00 | 49 | 1003.6 |
| 20260505200351 | 94 | 231 | 0.9 | 6.1 | 0.00 | 0.00 | 0.00 | 46 | 1003.7 |
| 20260505195852 | 94 | 239 | 0.9 | 6.1 | 0.00 | 0.00 | 0.00 | 51 | 1003.7 |
| 20260505194851 | 93 | 230 | 0.9 | 4.3 | 0.00 | 0.00 | 0.00 | 51 | 1003.7 |
| 20260505194352 | 93 | 253 | 0.0 | 4.3 | 0.00 | 0.00 | 0.00 | 51 | 1003.8 |
| 20260505193851 | 93 | 98 | 0.9 | 3.5 | 0.00 | 0.00 | 0.00 | 53 | 1003.7 |
| 20260505193356 | 92 | 253 | 0.9 | 7.0 | 0.00 | 0.00 | 0.00 | 54 | 1003.8 |
| 20260505193352 | 92 | 232 | 0.9 | 7.0 | 0.00 | 0.00 | 0.00 | 54 | 1003.7 |
| 20260505192351 | 92 | 214 | 0.9 | 4.3 | 0.00 | 0.00 | 0.00 | 53 | 1003.9 |
| 20260505191851 | 91 | 238 | 0.9 | 5.2 | 0.00 | 0.00 | 0.00 | 53 | 1003.8 |
| 20260505191353 | 91 | 230 | 0.9 | 5.2 | 0.00 | 0.00 | 0.00 | 56 | 1003.8 |
| 20260505190851 | 90 | 24 | 0.9 | 6.1 | 0.00 | 0.00 | 0.00 | 54 | 1003.9 |
| 20260505190351 | 90 | 240 | 0.9 | 6.1 | 0.00 | 0.00 | 0.00 | 56 | 1003.8 |
| 20260505185851 | 89 | 297 | 1.7 | 6.1 | 0.00 | 0.00 | 0.00 | 58 | 1003.9 |
| 20260505185352 | 89 | 239 | 1.7 | 5.2 | 0.00 | 0.00 | 0.00 | 59 | 1003.9 |
| 20260505184853 | 89 | 250 | 0.9 | 5.2 | 0.00 | 0.00 | 0.00 | 58 | 1003.9 |
| 20260505184354 | 88 | 234 | 1.7 | 5.2 | 0.00 | 0.00 | 0.00 | 60 | 1004.0 |
| 20260505184350 | 88 | 204 | 0.9 | 4.3 | 0.00 | 0.00 | 0.00 | 58 | 1004.0 |
| 20260505183350 | 87 | 206 | 2.6 | 7.0 | 0.00 | 0.00 | 0.00 | 59 | 1004.0 |
| 20260505182849 | 87 | 219 | 1.7 | 7.0 | 0.00 | 0.00 | 0.00 | 59 | 1004.1 |
| 20260505182350 | 87 | 250 | 0.9 | 5.2 | 0.00 | 0.00 | 0.00 | 59 | 1004.1 |
| 20260505181856 | 87 | 232 | 1.7 | 7.8 | 0.00 | 0.00 | 0.00 | 61 | 1004.2 |
| 20260505181849 | 87 | 275 | 1.7 | 5.2 | 0.00 | 0.00 | 0.00 | 60 | 1004.1 |
| 20260505180851 | 86 | 224 | 2.6 | 7.8 | 0.00 | 0.00 | 0.00 | 60 | 1004.1 |
| 20260505180349 | 86 | 76 | 1.7 | 7.0 | 0.00 | 0.00 | 0.00 | 60 | 1004.1 |
| 20260505175852 | 86 | 309 | 1.7 | 7.8 | 0.00 | 0.00 | 0.00 | 63 | 1004.2 |
| 20260505175353 | 86 | 215 | 1.7 | 7.8 | 0.00 | 0.00 | 0.00 | 62 | 1004.3 |
| 20260505174850 | 85 | 177 | 1.7 | 7.8 | 0.00 | 0.00 | 0.00 | 63 | 1004.2 |
| 20260505174349 | 85 | 236 | 2.6 | 7.8 | 0.00 | 0.00 | 0.00 | 63 | 1004.2 |
| 20260505173849 | 86 | 208 | 2.6 | 7.0 | 0.00 | 0.00 | 0.00 | 61 | 1004.3 |
| 20260505173350 | 86 | 240 | 1.7 | 7.0 | 0.00 | 0.00 | 0.00 | 61 | 1004.3 |
| 20260505172848 | 87 | 238 | 0.9 | 5.2 | 0.00 | 0.00 | 0.00 | 61 | 1004.3 |
| 20260505172348 | 86 | 200 | 0.9 | 4.3 | 0.00 | 0.00 | 0.00 | 62 | 1004.3 |
| 20260505171851 | 85 | 243 | 1.7 | 6.1 | 0.00 | 0.00 | 0.00 | 63 | 1004.3 |
| 20260505171846 | 85 | 210 | 1.7 | 6.1 | 0.00 | 0.00 | 0.00 | 64 | 1004.2 |
| 20260505170843 | 85 | 217 | 1.7 | 6.1 | 0.00 | 0.00 | 0.00 | 63 | 1004.3 |
| 20260505170351 | 85 | 177 | 1.7 | 8.7 | 0.00 | 0.00 | 0.00 | 64 | 1004.3 |
| 20260505170344 | 85 | 225 | 1.7 | 6.1 | 0.00 | 0.00 | 0.00 | 63 | 1004.3 |
| 20260505165341 | 85 | 217 | 1.7 | 8.7 | 0.00 | 0.00 | 0.00 | 63 | 1004.2 |
| 20260505164838 | 85 | 266 | 1.7 | 7.8 | 0.00 | 0.00 | 0.00 | 64 | 1004.2 |
| 20260505164338 | 84 | 137 | 2.6 | 7.8 | 0.00 | 0.00 | 0.00 | 66 | 1004.3 |
| 20260505163841 | 83 | 323 | 1.7 | 7.0 | 0.00 | 0.00 | 0.00 | 66 | 1004.3 |
| 20260505163837 | 83 | 167 | 2.6 | 7.8 | 0.00 | 0.00 | 0.00 | 66 | 1004.3 |
| 20260505162841 | 83 | 252 | 1.7 | 8.7 | 0.00 | 0.00 | 0.00 | 67 | 1004.1 |
| 20260505162837 | 83 | 240 | 1.7 | 7.0 | 0.00 | 0.00 | 0.00 | 66 | 1004.1 |
| 20260505161837 | 83 | 245 | 2.6 | 8.7 | 0.00 | 0.00 | 0.00 | 69 | 1004.2 |
| 20260505161335 | 82 | 238 | 2.6 | 7.0 | 0.00 | 0.00 | 0.00 | 68 | 1004.2 |
| 20260505160835 | 82 | 347 | 2.6 | 10.4 | 0.00 | 0.00 | 0.00 | 69 | 1004.2 |
| 20260505160335 | 82 | 314 | 2.6 | 10.4 | 0.00 | 0.00 | 0.00 | 69 | 1004.0 |
| 20260505153331 | 79 | 79 | 1.7 | 7.8 | 0.00 | 0.00 | 0.00 | 73 | 1003.7 |
| 20260505152831 | 79 | 203 | 1.7 | 7.8 | 0.00 | 0.00 | 0.00 | 74 | 1003.7 |
| 20260505152331 | 79 | 252 | 1.7 | 7.8 | 0.00 | 0.00 | 0.00 | 73 | 1003.8 |
| 20260505151831 | 79 | 136 | 1.7 | 7.0 | 0.00 | 0.00 | 0.00 | 74 | 1003.9 |
| 20260505151335 | 78 | 178 | 1.7 | 7.8 | 0.00 | 0.00 | 0.00 | 76 | 1003.9 |
| 20260505151331 | 78 | 83 | 1.7 | 5.2 | 0.00 | 0.00 | 0.00 | 75 | 1003.9 |
| 20260505150330 | 77 | 153 | 2.6 | 7.8 | 0.00 | 0.00 | 0.00 | 77 | 1003.9 |
| 20260505124326 | 70 | 229 | 1.7 | 6.1 | 0.00 | 0.00 | 0.00 | 84 | 1003.3 |
| 20260505124321 | 71 | 219 | 0.9 | 6.1 | 0.00 | 0.00 | 0.00 | 84 | 1003.4 |
| 20260505123321 | 70 | 214 | 0.9 | 5.2 | 0.00 | 0.00 | 0.00 | 84 | 1003.2 |
| 20260505122821 | 70 | 231 | 0.9 | 4.3 | 0.00 | 0.00 | 0.00 | 84 | 1003.1 |
| 20260505122322 | 70 | 263 | 0.9 | 7.0 | 0.00 | 0.00 | 0.00 | 84 | 1003.1 |
| 20260505121822 | 70 | 188 | 1.7 | 7.0 | 0.00 | 0.00 | 0.00 | 84 | 1003.1 |
| 20260505121321 | 70 | 230 | 0.9 | 7.0 | 0.00 | 0.00 | 0.00 | 84 | 1002.9 |
| 20260505120821 | 70 | 210 | 0.9 | 5.2 | 0.00 | 0.00 | 0.00 | 84 | 1002.9 |
| 20260505120320 | 70 | 237 | 1.7 | 6.1 | 0.00 | 0.00 | 0.00 | 84 | 1002.7 |
| 20260505115824 | 70 | 214 | 1.7 | 6.1 | 0.00 | 0.00 | 0.00 | 84 | 1002.9 |
| 20260505115819 | 70 | 258 | 1.7 | 6.1 | 0.00 | 0.00 | 0.00 | 84 | 1002.8 |
| 20260505114936 | 70 | 215 | 1.7 | 7.0 | 0.00 | 0.00 | 0.00 | 84 | 1002.9 |
| 20260505114824 | 70 | 212 | 1.7 | 7.0 | 0.00 | 0.00 | 0.00 | 84 | 1002.9 |
| 20260505114819 | 70 | 243 | 0.9 | 5.2 | 0.00 | 0.00 | 0.00 | 84 | 1003.0 |
| 20260505113319 | 70 | 240 | 0.9 | 6.1 | 0.00 | 0.00 | 0.00 | 84 | 1002.8 |
| 20260505112820 | 70 | 207 | 0.9 | 4.3 | 0.00 | 0.00 | 0.00 | 84 | 1002.8 |
| 20260505112320 | 70 | 226 | 0.9 | 4.3 | 0.00 | 0.00 | 0.00 | 84 | 1002.8 |
| 20260505111820 | 70 | 175 | 0.9 | 4.3 | 0.00 | 0.00 | 0.00 | 84 | 1002.7 |
| 20260505111320 | 70 | 167 | 1.7 | 7.0 | 0.00 | 0.00 | 0.00 | 85 | 1002.8 |
| 20260505110818 | 70 | 200 | 0.9 | 7.0 | 0.00 | 0.00 | 0.00 | 85 | 1002.8 |
| 20260505110317 | 70 | 221 | 1.7 | 7.8 | 0.00 | 0.00 | 0.00 | 85 | 1002.8 |
| 20260505101815 | 71 | 236 | 0.9 | 5.2 | 0.00 | 0.00 | 0.00 | 85 | 1002.9 |
| 20260505101315 | 71 | 188 | 1.7 | 7.8 | 0.00 | 0.00 | 0.00 | 85 | 1003.0 |
| 20260505100815 | 71 | 4 | 1.7 | 7.8 | 0.00 | 0.00 | 0.00 | 85 | 1002.9 |
| 20260505100315 | 71 | 160 | 2.6 | 7.8 | 0.00 | 0.00 | 0.00 | 85 | 1002.8 |
| 20260505095814 | 71 | 212 | 1.7 | 7.0 | 0.00 | 0.00 | 0.00 | 85 | 1002.8 |
| 20260505095314 | 71 | 237 | 0.9 | 7.0 | 0.00 | 0.00 | 0.00 | 85 | 1002.9 |
| 20260505094810 | 71 | 172 | 1.7 | 9.6 | 0.00 | 0.00 | 0.00 | 85 | 1002.9 |
| 20260505094314 | 71 | 291 | 1.7 | 9.6 | 0.00 | 0.00 | 0.00 | 85 | 1002.6 |
| 20260505094309 | 71 | 257 | 1.7 | 8.7 | 0.00 | 0.00 | 0.00 | 85 | 1002.8 |
| 20260505093306 | 71 | 182 | 1.7 | 8.7 | 0.00 | 0.00 | 0.00 | 85 | 1003.0 |
| 20260505092807 | 71 | 195 | 1.7 | 9.6 | 0.00 | 0.00 | 0.00 | 84 | 1003.1 |
| 20260505092305 | 71 | 238 | 1.7 | 9.6 | 0.00 | 0.00 | 0.00 | 84 | 1003.0 |
| 20260505091808 | 71 | 211 | 1.7 | 5.2 | 0.00 | 0.00 | 0.00 | 84 | 1003.2 |
| 20260505091804 | 71 | 155 | 1.7 | 5.2 | 0.00 | 0.00 | 0.00 | 84 | 1003.1 |
| 20260505090802 | 72 | 202 | 1.7 | 7.8 | 0.00 | 0.00 | 0.00 | 84 | 1003.3 |
| 20260505090300 | 72 | 272 | 1.7 | 7.8 | 0.00 | 0.00 | 0.00 | 84 | 1003.3 |
| 20260505085800 | 72 | 207 | 1.7 | 9.6 | 0.00 | 0.00 | 0.00 | 83 | 1003.3 |
| 20260505085304 | 72 | 235 | 1.7 | 9.6 | 0.00 | 0.00 | 0.00 | 83 | 1003.3 |
| 20260505084801 | 72 | 233 | 1.7 | 8.7 | 0.00 | 0.00 | 0.00 | 83 | 1003.3 |
| 20260505084259 | 72 | 341 | 2.6 | 8.7 | 0.00 | 0.00 | 0.00 | 83 | 1003.3 |
| 20260505083758 | 72 | 217 | 2.6 | 10.4 | 0.00 | 0.00 | 0.00 | 83 | 1003.3 |
| 20260505083258 | 72 | 293 | 2.6 | 10.4 | 0.00 | 0.00 | 0.00 | 83 | 1003.3 |
| 20260505082755 | 72 | 297 | 1.7 | 8.7 | 0.00 | 0.00 | 0.00 | 83 | 1003.3 |
| 20260505082255 | 72 | 234 | 1.7 | 7.0 | 0.00 | 0.00 | 0.00 | 82 | 1003.3 |
| 20260505081755 | 72 | 271 | 1.7 | 11.3 | 0.00 | 0.00 | 0.00 | 82 | 1003.2 |
| 20260505081256 | 72 | 226 | 2.6 | 11.3 | 0.00 | 0.00 | 0.00 | 82 | 1003.2 |
| 20260505080752 | 73 | 214 | 1.7 | 9.6 | 0.00 | 0.00 | 0.00 | 82 | 1003.3 |
| 20260505080253 | 73 | 192 | 1.7 | 8.7 | 0.00 | 0.00 | 0.00 | 81 | 1003.3 |
| 20260505075759 | 73 | 86 | 1.7 | 8.7 | 0.00 | 0.00 | 0.00 | 80 | 1003.4 |
| 20260505075754 | 73 | 120 | 1.7 | 8.7 | 0.00 | 0.00 | 0.00 | 81 | 1003.2 |
| 20260505074753 | 73 | 228 | 1.7 | 8.7 | 0.00 | 0.00 | 0.00 | 80 | 1003.4 |
| 20260505074252 | 73 | 172 | 1.7 | 9.6 | 0.00 | 0.00 | 0.00 | 80 | 1003.5 |
| 20260505073752 | 73 | 186 | 1.7 | 9.6 | 0.00 | 0.00 | 0.00 | 79 | 1003.6 |
| 20260505073252 | 73 | 259 | 0.9 | 7.0 | 0.00 | 0.00 | 0.00 | 79 | 1003.7 |
| 20260505072752 | 73 | 229 | 1.7 | 8.7 | 0.00 | 0.00 | 0.00 | 79 | 1003.8 |
| 20260505072253 | 73 | 234 | 1.7 | 8.7 | 0.00 | 0.00 | 0.00 | 78 | 1004.0 |
| 20260505071752 | 73 | 216 | 1.7 | 8.7 | 0.00 | 0.00 | 0.00 | 78 | 1004.1 |
| 20260505071250 | 74 | 225 | 1.7 | 8.7 | 0.00 | 0.00 | 0.00 | 77 | 1004.2 |
| 20260505070750 | 74 | 100 | 0.9 | 6.1 | 0.00 | 0.00 | 0.00 | 77 | 1004.2 |
| 20260505070250 | 74 | 236 | 0.9 | 6.1 | 0.00 | 0.00 | 0.00 | 77 | 1004.3 |
| 20260505065750 | 74 | 264 | 1.7 | 7.8 | 0.00 | 0.00 | 0.00 | 77 | 1004.4 |
| 20260505065255 | 74 | 215 | 1.7 | 6.1 | 0.00 | 0.00 | 0.00 | 76 | 1004.5 |
| 20260505065250 | 74 | 219 | 0.9 | 7.8 | 0.00 | 0.00 | 0.00 | 76 | 1004.4 |
| 20260505064250 | 74 | 239 | 1.7 | 6.1 | 0.00 | 0.00 | 0.00 | 75 | 1004.6 |
| 20260505063750 | 74 | 182 | 2.6 | 7.8 | 0.00 | 0.00 | 0.00 | 75 | 1004.5 |
| 20260505063254 | 74 | 196 | 1.7 | 8.7 | 0.00 | 0.00 | 0.00 | 74 | 1004.7 |
| 20260505063250 | 74 | 252 | 1.7 | 7.8 | 0.00 | 0.00 | 0.00 | 75 | 1004.6 |
| 20260505062249 | 74 | 290 | 1.7 | 8.7 | 0.00 | 0.00 | 0.00 | 74 | 1004.6 |
| 20260505061748 | 75 | 313 | 1.7 | 7.8 | 0.00 | 0.00 | 0.00 | 73 | 1004.6 |
| 20260505061248 | 75 | 241 | 1.7 | 7.8 | 0.00 | 0.00 | 0.00 | 73 | 1004.6 |
| 20260505060749 | 75 | 217 | 1.7 | 7.8 | 0.00 | 0.00 | 0.00 | 72 | 1004.7 |
| 20260505060248 | 75 | 231 | 2.6 | 7.8 | 0.00 | 0.00 | 0.00 | 72 | 1004.7 |
| 20260505055753 | 75 | 216 | 0.9 | 7.8 | 0.00 | 0.00 | 0.00 | 71 | 1004.7 |
| 20260505055748 | 75 | 154 | 1.7 | 7.8 | 0.00 | 0.00 | 0.00 | 71 | 1004.7 |
| 20260505054747 | 76 | 198 | 2.6 | 9.6 | 0.00 | 0.00 | 0.00 | 70 | 1004.5 |
| 20260505054248 | 76 | 226 | 2.6 | 10.4 | 0.00 | 0.00 | 0.00 | 70 | 1004.5 |
| 20260505053747 | 76 | 222 | 2.6 | 10.4 | 0.00 | 0.00 | 0.00 | 69 | 1004.4 |
| 20260505053250 | 76 | 238 | 2.6 | 8.7 | 0.00 | 0.00 | 0.00 | 69 | 1004.4 |
| 20260505053246 | 76 | 223 | 2.6 | 8.7 | 0.00 | 0.00 | 0.00 | 69 | 1004.4 |
| 20260505052247 | 76 | 1 | 2.6 | 8.7 | 0.00 | 0.00 | 0.00 | 69 | 1004.4 |
| 20260505051748 | 76 | 220 | 2.6 | 8.7 | 0.00 | 0.00 | 0.00 | 70 | 1004.4 |
| 20260505051247 | 76 | 223 | 2.6 | 9.6 | 0.00 | 0.00 | 0.00 | 70 | 1004.5 |
| 20260505050747 | 76 | 231 | 1.7 | 9.6 | 0.00 | 0.00 | 0.00 | 71 | 1004.6 |